createdAt,value
2022-10-22T00:00:05.822Z,1001.99
2022-10-22T00:01:05.757Z,1001.95
2022-10-22T00:02:05.726Z,1001.95
2022-10-22T00:03:05.703Z,1001.97
2022-10-22T00:04:05.657Z,1001.96
2022-10-22T00:05:05.625Z,1002.05
2022-10-22T00:06:05.593Z,1001.98
2022-10-22T00:07:05.557Z,1002.02
2022-10-22T00:08:05.527Z,1002.02
2022-10-22T00:09:05.578Z,1002.06
2022-10-22T00:10:05.460Z,1002.08
2022-10-22T00:11:05.430Z,1002.09
2022-10-22T00:12:05.390Z,1002.15
2022-10-22T00:13:05.362Z,1002.10
2022-10-22T00:14:05.342Z,1002.13
2022-10-22T00:15:05.296Z,1002.10
2022-10-22T00:16:05.269Z,1002.09
2022-10-22T00:17:07.012Z,1002.08
2022-10-22T00:18:05.197Z,1002.13
2022-10-22T00:19:05.161Z,1002.14
2022-10-22T00:20:05.129Z,1002.10
2022-10-22T00:21:05.145Z,1002.09
2022-10-22T00:22:05.065Z,1002.06
2022-10-22T00:23:05.035Z,1002.06
2022-10-22T00:24:04.998Z,1002.05
2022-10-22T00:25:04.963Z,1002.10
2022-10-22T00:26:04.936Z,1002.08
2022-10-22T00:27:04.898Z,1002.09
2022-10-22T00:28:04.869Z,1002.09
2022-10-22T00:29:04.839Z,1002.08
2022-10-22T00:30:04.805Z,1002.10
2022-10-22T00:31:04.763Z,1002.09
2022-10-22T00:32:04.740Z,1002.07
2022-10-22T00:33:04.700Z,1002.07
2022-10-22T00:34:04.677Z,1002.07
2022-10-22T00:35:04.648Z,1002.08
2022-10-22T00:36:04.604Z,1002.09
2022-10-22T00:37:04.574Z,1002.08
2022-10-22T00:38:04.538Z,1002.07
2022-10-22T00:39:04.508Z,1002.07
2022-10-22T00:40:04.473Z,1002.09
2022-10-22T00:41:04.461Z,1002.10
2022-10-22T00:42:04.413Z,1002.08
2022-10-22T00:43:04.378Z,1002.06
2022-10-22T00:44:04.343Z,1002.03
2022-10-22T00:45:04.302Z,1002.04
2022-10-22T00:46:04.276Z,1001.99
2022-10-22T00:47:04.247Z,1001.98
2022-10-22T00:48:04.214Z,1001.95
2022-10-22T00:49:04.177Z,1001.96
2022-10-22T00:51:04.114Z,1001.96
2022-10-22T00:52:04.123Z,1001.98
2022-10-22T00:53:04.048Z,1001.96
2022-10-22T00:54:04.012Z,1001.97
2022-10-22T00:55:04.038Z,1002.00
2022-10-22T00:56:03.945Z,1001.98
2022-10-22T00:57:03.915Z,1001.99
2022-10-22T00:58:03.881Z,1001.94
2022-10-22T00:59:03.881Z,1001.95
2022-10-22T01:00:03.823Z,1001.89
2022-10-22T01:01:03.862Z,1001.91
2022-10-22T01:02:03.749Z,1001.89
2022-10-22T01:03:03.714Z,1001.86
2022-10-22T01:04:03.688Z,1001.87
2022-10-22T01:05:03.646Z,1001.85
2022-10-22T01:06:03.622Z,1001.85
2022-10-22T01:07:03.586Z,1001.87
2022-10-22T01:08:03.572Z,1001.88
2022-10-22T01:09:03.596Z,1001.91
2022-10-22T01:10:03.554Z,1001.89
2022-10-22T01:11:03.465Z,1001.92
2022-10-22T01:12:03.423Z,1001.90
2022-10-22T01:13:03.395Z,1001.90
2022-10-22T01:14:03.356Z,1001.94
2022-10-22T01:15:03.328Z,1001.92
2022-10-22T01:16:03.287Z,1001.92
2022-10-22T01:17:03.260Z,1001.94
2022-10-22T01:18:03.255Z,1001.94
2022-10-22T01:19:03.192Z,1001.95
2022-10-22T01:20:03.156Z,1001.94
2022-10-22T01:21:03.137Z,1001.91
2022-10-22T01:22:03.094Z,1001.90
2022-10-22T01:23:03.060Z,1001.88
2022-10-22T01:24:03.034Z,1001.90
2022-10-22T01:25:02.996Z,1001.87
2022-10-22T01:26:02.958Z,1001.83
2022-10-22T01:27:02.934Z,1001.86
2022-10-22T01:28:02.896Z,1001.84
2022-10-22T01:29:02.859Z,1001.82
2022-10-22T01:30:02.935Z,1001.86
2022-10-22T01:31:02.798Z,1001.87
2022-10-22T01:32:02.759Z,1001.85
2022-10-22T01:33:02.733Z,1001.81
2022-10-22T01:34:03.332Z,1001.81
2022-10-22T01:35:02.662Z,1001.79
2022-10-22T01:36:02.631Z,1001.78
2022-10-22T01:37:02.598Z,1001.82
2022-10-22T01:38:02.567Z,1001.82
2022-10-22T01:39:02.535Z,1001.90
2022-10-22T01:40:02.496Z,1001.88
2022-10-22T01:41:02.467Z,1001.84
2022-10-22T01:42:02.447Z,1001.81
2022-10-22T01:43:02.400Z,1001.82
2022-10-22T01:44:02.373Z,1001.86
2022-10-22T01:45:02.338Z,1001.92
2022-10-22T01:46:02.303Z,1001.92
2022-10-22T01:47:02.270Z,1001.89
2022-10-22T01:48:02.239Z,1001.82
2022-10-22T01:49:02.238Z,1001.84
2022-10-22T01:50:02.172Z,1001.89
2022-10-22T01:51:02.142Z,1001.94
2022-10-22T01:52:02.106Z,1001.98
2022-10-22T01:53:02.069Z,1001.93
2022-10-22T01:54:02.048Z,1001.93
2022-10-22T01:55:02.007Z,1001.84
2022-10-22T01:56:01.978Z,1001.83
2022-10-22T01:57:01.943Z,1001.87
2022-10-22T01:58:01.908Z,1001.87
2022-10-22T01:59:01.879Z,1001.91
2022-10-22T02:00:01.845Z,1001.88
2022-10-22T02:01:01.897Z,1001.89
2022-10-22T02:02:01.779Z,1001.89
2022-10-22T02:03:01.760Z,1001.89
2022-10-22T02:04:01.714Z,1001.90
2022-10-22T02:05:01.684Z,1001.91
2022-10-22T02:06:01.698Z,1001.89
2022-10-22T02:07:01.612Z,1001.89
2022-10-22T02:08:01.585Z,1001.93
2022-10-22T02:09:01.595Z,1001.96
2022-10-22T02:10:01.516Z,1001.94
2022-10-22T02:11:01.482Z,1002.00
2022-10-22T02:12:01.509Z,1002.00
2022-10-22T02:13:01.416Z,1001.97
2022-10-22T02:14:01.382Z,1001.94
2022-10-22T02:15:01.353Z,1001.94
2022-10-22T02:16:01.350Z,1001.93
2022-10-22T02:17:01.326Z,1001.93
2022-10-22T02:18:01.258Z,1001.94
2022-10-22T02:19:01.273Z,1001.89
2022-10-22T02:20:01.187Z,1001.94
2022-10-22T02:21:01.174Z,1001.93
2022-10-22T02:22:01.125Z,1001.95
2022-10-22T02:23:01.085Z,1001.96
2022-10-22T02:24:01.056Z,1002.01
2022-10-22T02:25:01.019Z,1001.98
2022-10-22T02:26:01.051Z,1001.96
2022-10-22T02:27:00.957Z,1001.97
2022-10-22T02:28:00.923Z,1001.96
2022-10-22T02:29:00.950Z,1001.96
2022-10-22T02:30:00.939Z,1001.91
2022-10-22T02:31:00.832Z,1001.92
2022-10-22T02:32:00.829Z,1001.89
2022-10-22T02:33:00.759Z,1001.92
2022-10-22T02:34:00.796Z,1001.87
2022-10-22T02:35:00.696Z,1001.86
2022-10-22T02:36:00.660Z,1001.90
2022-10-22T02:37:00.647Z,1001.86
2022-10-22T02:38:00.602Z,1001.89
2022-10-22T02:39:00.566Z,1001.90
2022-10-22T02:40:00.533Z,1001.88
2022-10-22T02:41:00.502Z,1001.90
2022-10-22T02:42:00.461Z,1001.91
2022-10-22T02:43:00.432Z,1001.94
2022-10-22T02:44:00.398Z,1001.98
2022-10-22T02:45:00.364Z,1001.95
2022-10-22T02:46:00.332Z,1002.00
2022-10-22T02:47:00.301Z,1001.99
2022-10-22T02:48:00.269Z,1001.97
2022-10-22T02:49:00.236Z,1001.97
2022-10-22T02:50:00.216Z,1001.99
2022-10-22T02:51:00.165Z,1002.00
2022-10-22T02:52:00.137Z,1001.98
2022-10-22T02:53:00.098Z,1001.95
2022-10-22T02:54:00.088Z,1001.98
2022-10-22T02:55:00.036Z,1001.95
2022-10-22T02:56:00.001Z,1001.92
2022-10-22T02:56:59.969Z,1001.94
2022-10-22T02:57:59.937Z,1001.93
2022-10-22T02:58:59.907Z,1001.93
2022-10-22T02:59:59.873Z,1001.97
2022-10-22T03:00:59.913Z,1001.97
2022-10-22T03:01:59.812Z,1001.95
2022-10-22T03:02:59.776Z,1001.96
2022-10-22T03:03:59.742Z,1001.96
2022-10-22T03:04:59.716Z,1001.97
2022-10-22T03:05:59.682Z,1001.99
2022-10-22T03:06:59.642Z,1002.00
2022-10-22T03:07:59.612Z,1002.04
2022-10-22T03:08:59.625Z,1002.06
2022-10-22T03:09:59.542Z,1002.06
2022-10-22T03:10:59.522Z,1002.03
2022-10-22T03:11:59.477Z,1002.05
2022-10-22T03:12:59.449Z,1002.08
2022-10-22T03:13:59.409Z,1002.09
2022-10-22T03:14:59.377Z,1002.11
2022-10-22T03:15:59.347Z,1002.11
2022-10-22T03:16:59.313Z,1002.13
2022-10-22T03:17:59.280Z,1002.12
2022-10-22T03:18:59.256Z,1002.13
2022-10-22T03:19:59.215Z,1002.09
2022-10-22T03:20:59.181Z,1002.11
2022-10-22T03:21:59.156Z,1002.09
2022-10-22T03:22:59.121Z,1002.07
2022-10-22T03:23:59.081Z,1002.07
2022-10-22T03:24:59.053Z,1002.09
2022-10-22T03:26:58.985Z,1002.10
2022-10-22T03:27:58.952Z,1002.07
2022-10-22T03:28:58.916Z,1002.12
2022-10-22T03:29:58.886Z,1002.09
2022-10-22T03:30:58.854Z,1002.11
2022-10-22T03:31:59.359Z,1002.07
2022-10-22T03:32:58.784Z,1002.09
2022-10-22T03:33:58.749Z,1002.07
2022-10-22T03:35:58.689Z,1002.10
2022-10-22T03:36:58.654Z,1002.12
2022-10-22T03:37:58.620Z,1002.11
2022-10-22T03:38:58.589Z,1002.09
2022-10-22T03:39:58.554Z,1002.12
2022-10-22T03:40:58.577Z,1002.11
2022-10-22T03:41:58.486Z,1002.11
2022-10-22T03:42:58.453Z,1002.14
2022-10-22T03:43:58.421Z,1002.10
2022-10-22T03:44:58.388Z,1002.15
2022-10-22T03:45:58.356Z,1002.16
2022-10-22T03:47:01.636Z,1002.13
2022-10-22T03:47:58.290Z,1002.18
2022-10-22T03:48:58.261Z,1002.15
2022-10-22T03:49:58.223Z,1002.17
2022-10-22T03:50:58.198Z,1002.13
2022-10-22T03:51:58.156Z,1002.13
2022-10-22T03:52:58.122Z,1002.14
2022-10-22T03:53:58.093Z,1002.18
2022-10-22T03:54:58.057Z,1002.15
2022-10-22T03:55:58.021Z,1002.10
2022-10-22T03:56:57.988Z,1002.17
2022-10-22T03:57:57.960Z,1002.16
2022-10-22T03:58:57.934Z,1002.18
2022-10-22T03:59:57.891Z,1002.16
2022-10-22T04:00:57.900Z,1002.18
2022-10-22T04:01:57.826Z,1002.18
2022-10-22T04:02:57.792Z,1002.23
2022-10-22T04:03:57.755Z,1002.25
2022-10-22T04:04:57.724Z,1002.28
2022-10-22T04:05:57.687Z,1002.28
2022-10-22T04:06:57.660Z,1002.32
2022-10-22T04:07:57.628Z,1002.35
2022-10-22T04:08:57.650Z,1002.39
2022-10-22T04:09:57.561Z,1002.40
2022-10-22T04:10:57.529Z,1002.38
2022-10-22T04:11:57.494Z,1002.35
2022-10-22T04:12:57.498Z,1002.39
2022-10-22T04:13:57.422Z,1002.40
2022-10-22T04:14:57.390Z,1002.43
2022-10-22T04:15:57.364Z,1002.44
2022-10-22T04:16:57.329Z,1002.47
2022-10-22T04:17:57.291Z,1002.49
2022-10-22T04:18:57.262Z,1002.49
2022-10-22T04:19:57.228Z,1002.51
2022-10-22T04:20:57.200Z,1002.50
2022-10-22T04:21:57.157Z,1002.51
2022-10-22T04:22:57.129Z,1002.56
2022-10-22T04:23:57.094Z,1002.58
2022-10-22T04:24:57.061Z,1002.57
2022-10-22T04:25:57.028Z,1002.58
2022-10-22T04:26:56.993Z,1002.57
2022-10-22T04:27:56.962Z,1002.57
2022-10-22T04:28:56.930Z,1002.61
2022-10-22T04:29:56.891Z,1002.58
2022-10-22T04:30:56.859Z,1002.65
2022-10-22T04:31:56.827Z,1002.66
2022-10-22T04:32:56.809Z,1002.69
2022-10-22T04:33:56.801Z,1002.72
2022-10-22T04:34:56.732Z,1002.74
2022-10-22T04:35:56.718Z,1002.74
2022-10-22T04:36:56.667Z,1002.74
2022-10-22T04:37:56.630Z,1002.75
2022-10-22T04:38:56.591Z,1002.74
2022-10-22T04:39:58.238Z,1002.73
2022-10-22T04:40:56.528Z,1002.75
2022-10-22T04:41:56.493Z,1002.78
2022-10-22T04:42:56.458Z,1002.74
2022-10-22T04:43:56.428Z,1002.74
2022-10-22T04:44:56.394Z,1002.73
2022-10-22T04:46:56.327Z,1002.70
2022-10-22T04:47:56.291Z,1002.72
2022-10-22T04:48:56.254Z,1002.71
2022-10-22T04:49:56.227Z,1002.70
2022-10-22T04:50:56.192Z,1002.69
2022-10-22T04:51:56.157Z,1002.71
2022-10-22T04:52:56.135Z,1002.71
2022-10-22T04:53:56.091Z,1002.66
2022-10-22T04:54:56.070Z,1002.66
2022-10-22T04:55:56.027Z,1002.65
2022-10-22T04:56:55.998Z,1002.67
2022-10-22T04:57:55.958Z,1002.67
2022-10-22T04:58:55.925Z,1002.65
2022-10-22T04:59:55.890Z,1002.68
2022-10-22T05:00:55.913Z,1002.67
2022-10-22T05:01:55.827Z,1002.68
2022-10-22T05:02:55.792Z,1002.70
2022-10-22T05:03:55.754Z,1002.74
2022-10-22T05:04:55.724Z,1002.72
2022-10-22T05:05:55.689Z,1002.76
2022-10-22T05:06:55.654Z,1002.74
2022-10-22T05:07:55.622Z,1002.72
2022-10-22T05:08:55.698Z,1002.73
2022-10-22T05:09:55.561Z,1002.74
2022-10-22T05:10:55.523Z,1002.81
2022-10-22T05:11:55.485Z,1002.80
2022-10-22T05:12:55.462Z,1002.81
2022-10-22T05:13:55.420Z,1002.85
2022-10-22T05:14:55.386Z,1002.89
2022-10-22T05:15:55.362Z,1002.86
2022-10-22T05:16:55.321Z,1002.89
2022-10-22T05:17:55.287Z,1002.94
2022-10-22T05:18:55.253Z,1002.94
2022-10-22T05:19:55.224Z,1002.90
2022-10-22T05:20:55.227Z,1002.94
2022-10-22T05:21:55.160Z,1002.92
2022-10-22T05:22:55.119Z,1002.96
2022-10-22T05:23:55.082Z,1002.93
2022-10-22T05:24:55.049Z,1002.92
2022-10-22T05:25:55.019Z,1002.96
2022-10-22T05:26:54.983Z,1002.97
2022-10-22T05:27:57.226Z,1002.99
2022-10-22T05:28:54.923Z,1002.99
2022-10-22T05:29:54.885Z,1003.02
2022-10-22T05:30:54.851Z,1003.05
2022-10-22T05:31:54.820Z,1003.03
2022-10-22T05:32:54.782Z,1003.07
2022-10-22T05:33:54.747Z,1003.12
2022-10-22T05:34:54.715Z,1003.11
2022-10-22T05:35:54.682Z,1003.12
2022-10-22T05:36:54.720Z,1003.16
2022-10-22T05:37:54.621Z,1003.16
2022-10-22T05:38:54.582Z,1003.22
2022-10-22T05:40:01.916Z,1003.20
2022-10-22T05:40:54.509Z,1003.23
2022-10-22T05:41:54.480Z,1003.21
2022-10-22T05:42:54.451Z,1003.23
2022-10-22T05:43:54.415Z,1003.24
2022-10-22T05:44:54.376Z,1003.21
2022-10-22T05:45:54.351Z,1003.22
2022-10-22T05:46:54.313Z,1003.26
2022-10-22T05:47:54.281Z,1003.28
2022-10-22T05:48:54.244Z,1003.27
2022-10-22T05:49:54.209Z,1003.29
2022-10-22T05:50:54.172Z,1003.33
2022-10-22T05:51:54.140Z,1003.28
2022-10-22T05:52:54.108Z,1003.35
2022-10-22T05:53:54.081Z,1003.34
2022-10-22T05:54:54.043Z,1003.34
2022-10-22T05:55:54.018Z,1003.35
2022-10-22T05:56:53.988Z,1003.40
2022-10-22T05:57:53.947Z,1003.38
2022-10-22T05:58:53.937Z,1003.40
2022-10-22T05:59:53.877Z,1003.41
2022-10-22T06:00:53.836Z,1003.48
2022-10-22T06:01:53.862Z,1003.49
2022-10-22T06:02:53.773Z,1003.51
2022-10-22T06:03:53.740Z,1003.53
2022-10-22T06:04:53.702Z,1003.55
2022-10-22T06:05:53.671Z,1003.57
2022-10-22T06:06:53.647Z,1003.56
2022-10-22T06:07:53.601Z,1003.55
2022-10-22T06:08:53.631Z,1003.55
2022-10-22T06:09:53.537Z,1003.56
2022-10-22T06:10:53.501Z,1003.59
2022-10-22T06:11:53.471Z,1003.58
2022-10-22T06:12:53.428Z,1003.54
2022-10-22T06:13:53.403Z,1003.57
2022-10-22T06:14:53.376Z,1003.60
2022-10-22T06:15:53.328Z,1003.58
2022-10-22T06:16:53.295Z,1003.64
2022-10-22T06:17:53.264Z,1003.63
2022-10-22T06:18:53.395Z,1003.63
2022-10-22T06:19:53.268Z,1003.64
2022-10-22T06:20:53.161Z,1003.65
2022-10-22T06:21:53.127Z,1003.68
2022-10-22T06:22:53.094Z,1003.70
2022-10-22T06:23:53.057Z,1003.72
2022-10-22T06:24:53.024Z,1003.71
2022-10-22T06:25:52.987Z,1003.71
2022-10-22T06:26:52.957Z,1003.74
2022-10-22T06:27:52.927Z,1003.79
2022-10-22T06:28:52.890Z,1003.80
2022-10-22T06:29:52.858Z,1003.81
2022-10-22T06:30:52.822Z,1003.85
2022-10-22T06:31:52.789Z,1003.80
2022-10-22T06:32:52.752Z,1003.78
2022-10-22T06:33:52.722Z,1003.79
2022-10-22T06:34:52.684Z,1003.85
2022-10-22T06:35:52.653Z,1003.85
2022-10-22T06:36:52.706Z,1003.86
2022-10-22T06:37:52.583Z,1003.86
2022-10-22T06:38:52.689Z,1003.88
2022-10-22T06:39:52.555Z,1003.88
2022-10-22T06:40:52.480Z,1003.91
2022-10-22T06:41:52.449Z,1003.93
2022-10-22T06:42:52.415Z,1003.92
2022-10-22T06:43:52.448Z,1003.98
2022-10-22T06:44:52.399Z,1003.91
2022-10-22T06:45:52.312Z,1003.93
2022-10-22T06:46:52.278Z,1003.97
2022-10-22T06:47:52.283Z,1003.96
2022-10-22T06:48:52.213Z,1003.98
2022-10-22T06:49:52.179Z,1003.97
2022-10-22T06:50:52.153Z,1003.96
2022-10-22T06:51:52.162Z,1003.97
2022-10-22T06:52:52.076Z,1003.95
2022-10-22T06:53:52.046Z,1003.97
2022-10-22T06:54:52.009Z,1003.99
2022-10-22T06:55:51.972Z,1004.01
2022-10-22T06:56:51.943Z,1004.02
2022-10-22T06:57:51.914Z,1004.02
2022-10-22T06:58:51.873Z,1004.09
2022-10-22T06:59:51.877Z,1004.07
2022-10-22T07:00:51.853Z,1004.09
2022-10-22T07:01:51.833Z,1004.11
2022-10-22T07:02:51.767Z,1004.13
2022-10-22T07:03:51.707Z,1004.18
2022-10-22T07:04:51.667Z,1004.20
2022-10-22T07:05:51.639Z,1004.21
2022-10-22T07:06:51.599Z,1004.18
2022-10-22T07:07:51.568Z,1004.23
2022-10-22T07:08:51.613Z,1004.25
2022-10-22T07:09:51.605Z,1004.26
2022-10-22T07:10:51.466Z,1004.31
2022-10-22T07:11:51.433Z,1004.29
2022-10-22T07:12:51.404Z,1004.30
2022-10-22T07:13:51.365Z,1004.29
2022-10-22T07:14:51.336Z,1004.33
2022-10-22T07:15:51.303Z,1004.34
2022-10-22T07:16:51.263Z,1004.35
2022-10-22T07:17:51.233Z,1004.41
2022-10-22T07:18:51.205Z,1004.42
2022-10-22T07:19:52.015Z,1004.45
2022-10-22T07:20:51.131Z,1004.48
2022-10-22T07:21:51.101Z,1004.51
2022-10-22T07:22:51.063Z,1004.53
2022-10-22T07:23:51.032Z,1004.54
2022-10-22T07:24:51.008Z,1004.56
2022-10-22T07:25:51.030Z,1004.56
2022-10-22T07:26:50.933Z,1004.58
2022-10-22T07:27:50.902Z,1004.58
2022-10-22T07:28:50.865Z,1004.62
2022-10-22T07:29:50.832Z,1004.65
2022-10-22T07:30:50.801Z,1004.61
2022-10-22T07:31:50.765Z,1004.65
2022-10-22T07:32:50.731Z,1004.68
2022-10-22T07:33:50.698Z,1004.69
2022-10-22T07:34:50.662Z,1004.72
2022-10-22T07:35:50.630Z,1004.66
2022-10-22T07:36:50.626Z,1004.73
2022-10-22T07:37:50.564Z,1004.74
2022-10-22T07:38:50.634Z,1004.78
2022-10-22T07:39:50.498Z,1004.75
2022-10-22T07:40:50.462Z,1004.78
2022-10-22T07:41:50.432Z,1004.79
2022-10-22T07:42:50.405Z,1004.79
2022-10-22T07:43:50.394Z,1004.84
2022-10-22T07:44:50.331Z,1004.83
2022-10-22T07:45:50.300Z,1004.83
2022-10-22T07:46:50.263Z,1004.91
2022-10-22T07:47:50.231Z,1004.90
2022-10-22T07:48:50.202Z,1004.97
2022-10-22T07:49:50.159Z,1004.98
2022-10-22T07:50:50.133Z,1004.98
2022-10-22T07:51:50.100Z,1005.03
2022-10-22T07:52:50.063Z,1005.03
2022-10-22T07:53:50.079Z,1005.02
2022-10-22T07:54:50.004Z,1005.08
2022-10-22T07:55:49.962Z,1005.07
2022-10-22T07:56:49.960Z,1005.04
2022-10-22T07:57:49.951Z,1005.10
2022-10-22T07:58:49.897Z,1005.08
2022-10-22T07:59:49.911Z,1005.10
2022-10-22T08:00:49.813Z,1005.11
2022-10-22T08:01:49.766Z,1005.11
2022-10-22T08:02:49.731Z,1005.15
2022-10-22T08:03:49.704Z,1005.13
2022-10-22T08:04:49.673Z,1005.15
2022-10-22T08:05:49.640Z,1005.16
2022-10-22T08:06:49.622Z,1005.19
2022-10-22T08:07:49.607Z,1005.22
2022-10-22T08:08:49.615Z,1005.24
2022-10-22T08:09:49.511Z,1005.27
2022-10-22T08:10:49.471Z,1005.30
2022-10-22T08:11:49.444Z,1005.30
2022-10-22T08:12:49.400Z,1005.33
2022-10-22T08:13:49.368Z,1005.32
2022-10-22T08:14:49.491Z,1005.36
2022-10-22T08:15:51.408Z,1005.37
2022-10-22T08:16:49.266Z,1005.38
2022-10-22T08:17:49.236Z,1005.40
2022-10-22T08:18:49.207Z,1005.42
2022-10-22T08:19:49.169Z,1005.42
2022-10-22T08:20:49.135Z,1005.40
2022-10-22T08:21:49.105Z,1005.42
2022-10-22T08:22:49.070Z,1005.39
2022-10-22T08:23:49.050Z,1005.41
2022-10-22T08:24:49.136Z,1005.41
2022-10-22T08:25:48.992Z,1005.45
2022-10-22T08:26:48.943Z,1005.45
2022-10-22T08:27:48.910Z,1005.48
2022-10-22T08:28:48.879Z,1005.52
2022-10-22T08:29:48.848Z,1005.54
2022-10-22T08:30:48.841Z,1005.58
2022-10-22T08:31:48.785Z,1005.56
2022-10-22T08:32:51.589Z,1005.61
2022-10-22T08:33:48.714Z,1005.60
2022-10-22T08:34:48.684Z,1005.59
2022-10-22T08:35:48.644Z,1005.58
2022-10-22T08:36:48.616Z,1005.59
2022-10-22T08:37:48.618Z,1005.57
2022-10-22T08:38:48.551Z,1005.60
2022-10-22T08:39:48.517Z,1005.58
2022-10-22T08:41:48.451Z,1005.63
2022-10-22T08:42:48.421Z,1005.63
2022-10-22T08:43:48.386Z,1005.67
2022-10-22T08:44:48.352Z,1005.70
2022-10-22T08:45:48.327Z,1005.69
2022-10-22T08:46:48.343Z,1005.69
2022-10-22T08:47:48.260Z,1005.72
2022-10-22T08:48:48.222Z,1005.71
2022-10-22T08:49:48.187Z,1005.73
2022-10-22T08:50:48.157Z,1005.73
2022-10-22T08:51:48.127Z,1005.75
2022-10-22T08:52:48.087Z,1005.75
2022-10-22T08:53:48.063Z,1005.80
2022-10-22T08:54:48.025Z,1005.81
2022-10-22T08:55:47.996Z,1005.82
2022-10-22T08:56:47.991Z,1005.85
2022-10-22T08:57:51.370Z,1005.87
2022-10-22T08:58:47.901Z,1005.87
2022-10-22T08:59:47.863Z,1005.86
2022-10-22T09:00:47.832Z,1005.85
2022-10-22T09:01:47.800Z,1005.88
2022-10-22T09:02:47.767Z,1005.89
2022-10-22T09:03:47.738Z,1005.91
2022-10-22T09:04:47.702Z,1005.93
2022-10-22T09:05:47.716Z,1005.88
2022-10-22T09:06:50.741Z,1005.93
2022-10-22T09:07:47.637Z,1005.94
2022-10-22T09:08:47.648Z,1005.96
2022-10-22T09:09:47.549Z,1006.02
2022-10-22T09:10:47.510Z,1006.01
2022-10-22T09:11:47.475Z,1006.04
2022-10-22T09:12:47.449Z,1006.00
2022-10-22T09:13:47.414Z,1006.05
2022-10-22T09:14:47.379Z,1006.02
2022-10-22T09:15:47.473Z,1006.03
2022-10-22T09:16:47.318Z,1005.99
2022-10-22T09:17:47.284Z,1006.01
2022-10-22T09:18:47.253Z,1006.00
2022-10-22T09:19:47.222Z,1006.01
2022-10-22T09:20:47.286Z,1006.01
2022-10-22T09:21:47.152Z,1006.06
2022-10-22T09:22:47.123Z,1006.02
2022-10-22T09:23:47.093Z,1006.03
2022-10-22T09:24:47.064Z,1006.05
2022-10-22T09:25:47.023Z,1006.03
2022-10-22T09:26:47.000Z,1006.05
2022-10-22T09:27:46.968Z,1006.03
2022-10-22T09:28:46.927Z,1006.08
2022-10-22T09:29:46.897Z,1006.08
2022-10-22T09:30:46.917Z,1006.10
2022-10-22T09:31:46.831Z,1006.07
2022-10-22T09:32:46.801Z,1006.09
2022-10-22T09:33:46.763Z,1006.08
2022-10-22T09:34:46.769Z,1006.10
2022-10-22T09:35:46.704Z,1006.10
2022-10-22T09:36:46.671Z,1006.15
2022-10-22T09:37:46.643Z,1006.14
2022-10-22T09:38:46.606Z,1006.14
2022-10-22T09:39:46.572Z,1006.13
2022-10-22T09:40:46.545Z,1006.14
2022-10-22T09:41:46.509Z,1006.10
2022-10-22T09:42:46.483Z,1006.12
2022-10-22T09:43:46.450Z,1006.15
2022-10-22T09:44:48.456Z,1006.20
2022-10-22T09:45:46.379Z,1006.20
2022-10-22T09:46:46.350Z,1006.24
2022-10-22T09:48:02.466Z,1006.22
2022-10-22T09:48:46.286Z,1006.25
2022-10-22T09:49:46.254Z,1006.22
2022-10-22T09:50:46.219Z,1006.27
2022-10-22T09:51:46.198Z,1006.28
2022-10-22T09:52:46.155Z,1006.29
2022-10-22T09:53:46.124Z,1006.33
2022-10-22T09:54:46.106Z,1006.31
2022-10-22T09:55:46.126Z,1006.27
2022-10-22T09:56:46.021Z,1006.34
2022-10-22T09:57:46.330Z,1006.32
2022-10-22T09:58:45.987Z,1006.33
2022-10-22T09:59:45.927Z,1006.34
2022-10-22T10:00:45.899Z,1006.32
2022-10-22T10:01:45.875Z,1006.35
2022-10-22T10:02:45.859Z,1006.44
2022-10-22T10:03:45.814Z,1006.45
2022-10-22T10:04:45.782Z,1006.42
2022-10-22T10:05:45.737Z,1006.46
2022-10-22T10:06:45.783Z,1006.48
2022-10-22T10:07:45.675Z,1006.51
2022-10-22T10:08:45.765Z,1006.56
2022-10-22T10:09:45.610Z,1006.56
2022-10-22T10:10:45.576Z,1006.55
2022-10-22T10:11:45.543Z,1006.57
2022-10-22T10:13:45.479Z,1006.58
2022-10-22T10:14:45.446Z,1006.61
2022-10-22T10:15:45.414Z,1006.59
2022-10-22T10:16:45.382Z,1006.59
2022-10-22T10:17:45.614Z,1006.63
2022-10-22T10:18:45.321Z,1006.67
2022-10-22T10:19:45.299Z,1006.64
2022-10-22T10:20:45.260Z,1006.66
2022-10-22T10:21:45.224Z,1006.66
2022-10-22T10:22:45.345Z,1006.69
2022-10-22T10:23:45.162Z,1006.75
2022-10-22T10:24:45.194Z,1006.70
2022-10-22T10:25:45.110Z,1006.76
2022-10-22T10:26:45.070Z,1006.76
2022-10-22T10:27:45.030Z,1006.74
2022-10-22T10:28:44.999Z,1006.76
2022-10-22T10:29:44.965Z,1006.78
2022-10-22T10:30:44.940Z,1006.78
2022-10-22T10:31:44.915Z,1006.79
2022-10-22T10:32:44.869Z,1006.83
2022-10-22T10:33:44.846Z,1006.82
2022-10-22T10:34:44.812Z,1006.80
2022-10-22T10:35:44.779Z,1006.83
2022-10-22T10:36:44.748Z,1006.81
2022-10-22T10:37:44.772Z,1006.83
2022-10-22T10:38:44.676Z,1006.81
2022-10-22T10:39:44.656Z,1006.87
2022-10-22T10:40:44.618Z,1006.88
2022-10-22T10:41:44.583Z,1006.87
2022-10-22T10:42:44.598Z,1006.88
2022-10-22T10:43:44.519Z,1006.88
2022-10-22T10:44:44.489Z,1006.89
2022-10-22T10:45:44.451Z,1006.90
2022-10-22T10:46:44.418Z,1006.91
2022-10-22T10:47:44.496Z,1006.94
2022-10-22T10:48:44.374Z,1006.94
2022-10-22T10:49:44.414Z,1006.88
2022-10-22T10:50:44.300Z,1006.88
2022-10-22T10:51:44.263Z,1006.89
2022-10-22T10:52:44.229Z,1006.87
2022-10-22T10:53:44.254Z,1006.83
2022-10-22T10:54:44.232Z,1006.88
2022-10-22T10:55:44.175Z,1006.86
2022-10-22T10:56:44.125Z,1006.86
2022-10-22T10:57:44.205Z,1006.89
2022-10-22T10:58:44.031Z,1006.89
2022-10-22T10:59:44.007Z,1006.86
2022-10-22T11:00:43.967Z,1006.89
2022-10-22T11:01:44.068Z,1006.88
2022-10-22T11:02:43.954Z,1006.85
2022-10-22T11:03:43.874Z,1006.87
2022-10-22T11:04:43.852Z,1006.90
2022-10-22T11:05:43.816Z,1006.88
2022-10-22T11:06:43.773Z,1006.94
2022-10-22T11:07:43.749Z,1006.94
2022-10-22T11:08:43.777Z,1006.91
2022-10-22T11:09:43.685Z,1006.87
2022-10-22T11:10:43.649Z,1006.88
2022-10-22T11:11:43.618Z,1006.93
2022-10-22T11:12:43.841Z,1006.95
2022-10-22T11:13:43.551Z,1006.94
2022-10-22T11:14:43.529Z,1006.91
2022-10-22T11:15:43.494Z,1006.92
2022-10-22T11:16:43.456Z,1006.90
2022-10-22T11:17:43.424Z,1006.98
2022-10-22T11:18:43.391Z,1006.98
2022-10-22T11:19:51.616Z,1007.01
2022-10-22T11:20:43.337Z,1006.96
2022-10-22T11:21:43.298Z,1007.03
2022-10-22T11:23:00.418Z,1007.00
2022-10-22T11:23:43.288Z,1007.00
2022-10-22T11:24:43.280Z,1007.02
2022-10-22T11:25:43.234Z,1007.00
2022-10-22T11:26:43.136Z,1007.01
2022-10-22T11:27:43.367Z,1007.00
2022-10-22T11:28:43.167Z,1007.04
2022-10-22T11:29:43.044Z,1007.03
2022-10-22T11:30:43.015Z,1007.06
2022-10-22T11:31:42.991Z,1007.12
2022-10-22T11:32:43.157Z,1007.06
2022-10-22T11:33:42.908Z,1007.03
2022-10-22T11:34:42.899Z,1007.08
2022-10-22T11:35:42.900Z,1007.10
2022-10-22T11:36:42.879Z,1007.12
2022-10-22T11:37:43.245Z,1007.12
2022-10-22T11:38:42.749Z,1007.08
2022-10-22T11:39:42.722Z,1007.07
2022-10-22T11:40:42.687Z,1007.06
2022-10-22T11:41:42.655Z,1007.08
2022-10-22T11:42:42.635Z,1007.05
2022-10-22T11:43:42.591Z,1007.06
2022-10-22T11:44:42.584Z,1007.08
2022-10-22T11:45:42.522Z,1007.10
2022-10-22T11:46:42.492Z,1007.05
2022-10-22T11:47:42.795Z,1007.05
2022-10-22T11:48:42.435Z,1007.04
2022-10-22T11:49:42.418Z,1007.06
2022-10-22T11:50:42.362Z,1007.04
2022-10-22T11:51:42.338Z,1007.02
2022-10-22T11:52:42.301Z,1007.00
2022-10-22T11:53:42.269Z,1007.01
2022-10-22T11:54:42.255Z,1007.00
2022-10-22T11:55:42.205Z,1006.97
2022-10-22T11:56:42.189Z,1006.99
2022-10-22T11:57:42.412Z,1006.98
2022-10-22T11:58:42.115Z,1006.99
2022-10-22T11:59:42.078Z,1006.99
2022-10-22T12:00:42.043Z,1006.96
2022-10-22T12:01:42.012Z,1006.96
2022-10-22T12:02:42.388Z,1006.92
2022-10-22T12:03:41.952Z,1006.96
2022-10-22T12:04:42.040Z,1006.88
2022-10-22T12:05:41.891Z,1006.90
2022-10-22T12:06:41.855Z,1006.90
2022-10-22T12:07:41.823Z,1006.90
2022-10-22T12:08:41.842Z,1006.85
2022-10-22T12:09:41.794Z,1006.88
2022-10-22T12:10:41.736Z,1006.88